KARA/ARA METAR and TAF weather

Enter ICAO airport designator
Station Type Date Time Source
KARA METAR 2021/09/23 17:53 UTC NOAA

KARA 231753Z 06009KT 10SM CLR 25/12 A3010 RMK AO2 SLP192 T02500122 10250 20144 58008


Station Type Date Time Source
KARA Decoded METAR 2021/09/23 17:53 UTC NOAA

NEW IBERIA ACADIANA REGIONAL, LA, United States (KARA) 30-02N 091-53W 18M
Sep 23, 2021 - 01:53 PM EDT / 2021.09.23 1753 UTC
Wind: from the ENE (060 degrees) at 10 MPH (9 KT):0
Visibility: 10 mile(s):0
Sky conditions: clear
Temperature: 77.0 F (25.0 C)
Dew Point: 54.0 F (12.2 C)
Relative Humidity: 44%
Pressure (altimeter): 30.1 in. Hg (1019 hPa)
Pressure tendency: 0.02 inches (0.8 hPa) lower than three hours ago
ob: KARA 231753Z 06009KT 10SM CLR 25/12 A3010 RMK AO2 SLP192 T02500122 10250 20144 58008
cycle: 18

Station Type Date Time Source
KARA TAF 2021/09/23 18:27 UTC NOAA

TAF KARA 231720Z 2318/2418 04008KT P6SM SKC
FM240000 VRB05KT P6SM SKC

Example: see airport list